Decoded Metar for SBFI (FOZ DO IGUACU in BRAZIL) (IATA:IGU) | Meteo·Mobile Aviation Weather
aviador You're here:

SBFI Decoded Metar

FOZ DO IGUACU in BRAZIL
Report Time2019-01-18 12:00:00
UTC Time2019-01-18 13:34:48
Flight Rules Old
Wind010° at 12 kt
W.Decomp.*RWY 32: 5.3 kt HW 10.8 kt RCW
W.Rank010° ranks 12
Current wind is above 010° avg. (7.5)
Visibility9999 m
Phenomena:N/A
Clouds:Few 030 Hf
Expected CloudBase > 2,400 ft AGL from Temp-Dew spread
CeilingNone
Temp28°C (ISA +15)
Dew Point22°C (70% RH)
Heat Index30.7°C
QNH1014 hPa
Density Alt2,792 ft
Elevation797 ft
Report Wrong Elevation
Raw Report
METAR SBFI 181200Z 01012KT 9999 FEW030 28/22 Q1014=

Extra information for SBFI:More info

Metar Taf Metar & Taf Last 4 Metars F.Rules Stats Wind Profile Meteogram Temp Stats Airport Information Weather charts Add Link Nearby VenuesMetar ALERT Operation Metar Decoded Social comments